createdAt,value
2018-09-12T00:00:37.630Z,66.93
2018-09-12T00:01:41.028Z,67.07
2018-09-12T00:02:44.418Z,66.88
2018-09-12T00:03:47.838Z,67.09
2018-09-12T00:04:51.259Z,67.43
2018-09-12T00:05:54.680Z,67.00
2018-09-12T00:06:58.111Z,67.22
2018-09-12T00:08:01.494Z,67.35
2018-09-12T00:09:07.784Z,67.46
2018-09-12T00:10:11.203Z,67.46
2018-09-12T00:11:14.616Z,67.07
2018-09-12T00:12:18.020Z,67.14
2018-09-12T00:13:21.400Z,67.34
2018-09-12T00:14:24.810Z,67.48
2018-09-12T00:15:28.190Z,67.15
2018-09-12T00:16:31.553Z,67.39
2018-09-12T00:17:34.976Z,67.39
2018-09-12T00:18:38.385Z,67.48
2018-09-12T00:19:41.774Z,67.55
2018-09-12T00:20:45.196Z,67.67
2018-09-12T00:21:48.621Z,67.69
2018-09-12T00:22:51.980Z,67.45
2018-09-12T00:23:55.353Z,67.60
2018-09-12T00:24:58.788Z,67.47
2018-09-12T00:26:02.610Z,67.67
2018-09-12T00:27:06.031Z,67.66
2018-09-12T00:28:09.432Z,67.72
2018-09-12T00:29:12.824Z,67.54
2018-09-12T00:30:16.205Z,67.61
2018-09-12T00:31:19.608Z,67.46
2018-09-12T00:32:22.986Z,67.52
2018-09-12T00:33:26.379Z,67.73
2018-09-12T00:34:29.766Z,67.51
2018-09-12T00:35:33.129Z,67.71
2018-09-12T00:36:36.572Z,67.93
2018-09-12T00:37:39.968Z,67.92
2018-09-12T00:38:43.363Z,67.60
2018-09-12T00:39:46.800Z,67.85
2018-09-12T00:40:50.264Z,67.78
2018-09-12T00:41:53.644Z,67.96
2018-09-12T00:42:57.059Z,67.95
2018-09-12T00:44:00.462Z,67.80
2018-09-12T00:45:04.143Z,67.98
2018-09-12T00:46:07.518Z,67.81
2018-09-12T00:47:11.033Z,67.61
2018-09-12T00:48:14.439Z,67.77
2018-09-12T00:49:17.795Z,67.85
2018-09-12T00:50:21.197Z,68.01
2018-09-12T00:51:24.589Z,67.93
2018-09-12T00:52:27.950Z,67.84
2018-09-12T00:53:31.362Z,67.89
2018-09-12T00:54:34.773Z,68.00
2018-09-12T00:55:38.206Z,67.86
2018-09-12T00:56:41.591Z,67.84
2018-09-12T00:57:44.991Z,67.72
2018-09-12T00:58:48.461Z,67.73
2018-09-12T00:59:51.850Z,67.73
2018-09-12T01:00:55.326Z,67.68
2018-09-12T01:01:58.700Z,67.65
2018-09-12T01:03:02.949Z,67.86
2018-09-12T01:04:06.387Z,67.92
2018-09-12T01:05:10.084Z,68.03
2018-09-12T01:06:13.494Z,67.95
2018-09-12T01:07:16.885Z,68.03
2018-09-12T01:08:20.267Z,67.81
2018-09-12T01:09:23.658Z,68.02
2018-09-12T01:10:27.062Z,68.05
2018-09-12T01:11:30.591Z,67.89
2018-09-12T01:12:34.161Z,67.78
2018-09-12T01:13:37.570Z,67.87
2018-09-12T01:14:40.960Z,68.02
2018-09-12T01:15:44.374Z,67.85
2018-09-12T01:16:47.871Z,67.84
2018-09-12T01:17:51.253Z,67.66
2018-09-12T01:18:54.673Z,67.78
2018-09-12T01:19:58.062Z,67.78
2018-09-12T01:21:01.623Z,67.65
2018-09-12T01:22:05.018Z,67.66
2018-09-12T01:23:08.406Z,67.72
2018-09-12T01:24:11.795Z,67.40
2018-09-12T01:25:15.176Z,67.58
2018-09-12T01:26:18.607Z,68.03
2018-09-12T01:27:21.976Z,67.65
2018-09-12T01:28:25.360Z,67.26
2018-09-12T01:29:28.899Z,67.64
2018-09-12T01:30:32.272Z,67.75
2018-09-12T01:31:35.703Z,67.71
2018-09-12T01:32:39.072Z,67.50
2018-09-12T01:33:42.458Z,67.53
2018-09-12T01:34:45.898Z,67.90
2018-09-12T01:35:49.323Z,67.81
2018-09-12T01:36:52.748Z,67.90
2018-09-12T01:37:56.139Z,67.92
2018-09-12T01:38:59.535Z,67.73
2018-09-12T01:40:03.090Z,67.94
2018-09-12T01:41:06.584Z,67.86
2018-09-12T01:42:09.950Z,68.00
2018-09-12T01:43:13.326Z,67.80
2018-09-12T01:44:16.682Z,67.78
2018-09-12T01:45:20.525Z,67.65
2018-09-12T01:46:23.933Z,67.96
2018-09-12T01:47:27.290Z,67.95
2018-09-12T01:48:30.670Z,67.71
2018-09-12T01:49:34.074Z,67.83
2018-09-12T01:50:37.498Z,68.20
2018-09-12T01:51:40.895Z,67.80
2018-09-12T01:52:44.586Z,67.48
2018-09-12T01:53:48.011Z,67.98
2018-09-12T01:54:51.455Z,67.75
2018-09-12T01:55:54.878Z,68.18
2018-09-12T01:56:58.258Z,68.23
2018-09-12T01:58:01.672Z,67.86
2018-09-12T01:59:05.354Z,67.80
2018-09-12T02:00:12.527Z,68.00
2018-09-12T02:01:15.925Z,67.97
2018-09-12T02:02:19.346Z,68.09
2018-09-12T02:03:22.709Z,67.63
2018-09-12T02:04:26.099Z,68.12
2018-09-12T02:05:29.502Z,68.06
2018-09-12T02:06:32.918Z,67.85
2018-09-12T02:07:37.416Z,67.89
2018-09-12T02:08:40.826Z,67.77
2018-09-12T02:09:44.220Z,67.70
2018-09-12T02:10:47.665Z,67.79
2018-09-12T02:11:51.076Z,67.84
2018-09-12T02:12:54.453Z,68.07
2018-09-12T02:13:57.959Z,67.89
2018-09-12T02:15:01.324Z,68.11
2018-09-12T02:16:04.760Z,67.75
2018-09-12T02:17:08.192Z,68.25
2018-09-12T02:18:11.589Z,68.20
2018-09-12T02:19:14.994Z,68.09
2018-09-12T02:20:18.417Z,67.82
2018-09-12T02:21:21.821Z,67.92
2018-09-12T02:22:25.251Z,67.95
2018-09-12T02:23:28.616Z,68.29
2018-09-12T02:24:32.019Z,67.78
2018-09-12T02:25:35.413Z,67.92
2018-09-12T02:26:38.884Z,67.73
2018-09-12T02:27:42.420Z,67.93
2018-09-12T02:28:45.828Z,68.02
2018-09-12T02:29:49.238Z,67.71
2018-09-12T02:30:52.838Z,67.96
2018-09-12T02:31:56.246Z,67.82
2018-09-12T02:32:59.640Z,67.90
2018-09-12T02:34:03.074Z,67.88
2018-09-12T02:35:06.573Z,67.97
2018-09-12T02:36:15.374Z,68.40
2018-09-12T02:37:18.752Z,68.27
2018-09-12T02:38:22.152Z,68.41
2018-09-12T02:39:25.731Z,67.72
2018-09-12T02:40:29.128Z,68.44
2018-09-12T02:41:33.215Z,68.01
2018-09-12T02:42:36.596Z,68.03
2018-09-12T02:43:40.010Z,68.04
2018-09-12T02:44:43.378Z,68.11
2018-09-12T02:45:46.833Z,67.67
2018-09-12T02:46:50.207Z,67.99
2018-09-12T02:47:53.627Z,67.96
2018-09-12T02:48:57.063Z,67.82
2018-09-12T02:50:00.450Z,67.94
2018-09-12T02:51:03.907Z,67.86
2018-09-12T02:52:07.325Z,67.73
2018-09-12T02:53:10.744Z,68.34
2018-09-12T02:54:14.195Z,68.09
2018-09-12T02:55:17.559Z,68.04
2018-09-12T02:56:20.967Z,68.07
2018-09-12T02:57:24.368Z,67.85
2018-09-12T02:58:27.799Z,68.15
2018-09-12T02:59:31.268Z,68.20
2018-09-12T03:00:34.691Z,68.08
2018-09-12T03:01:38.159Z,68.24
2018-09-12T03:02:41.539Z,68.11
2018-09-12T03:03:44.913Z,67.98
2018-09-12T03:04:52.896Z,68.21
2018-09-12T03:05:56.353Z,68.24
2018-09-12T03:06:59.972Z,68.13
2018-09-12T03:08:03.482Z,68.39
2018-09-12T03:09:07.914Z,68.23
2018-09-12T03:10:11.400Z,68.21
2018-09-12T03:11:14.794Z,68.33
2018-09-12T03:12:18.198Z,68.53
2018-09-12T03:13:21.579Z,68.18
2018-09-12T03:14:24.927Z,68.07
2018-09-12T03:15:28.348Z,68.26
2018-09-12T03:16:32.252Z,68.31
2018-09-12T03:17:35.706Z,68.38
2018-09-12T03:18:39.116Z,68.22
2018-09-12T03:19:42.547Z,68.55
2018-09-12T03:20:46.042Z,67.96
2018-09-12T03:21:49.850Z,67.87
2018-09-12T03:22:53.244Z,67.98
2018-09-12T03:23:56.680Z,68.28
2018-09-12T03:25:00.058Z,68.11
2018-09-12T03:26:03.569Z,68.00
2018-09-12T03:27:06.986Z,68.22
2018-09-12T03:28:10.412Z,68.37
2018-09-12T03:29:13.804Z,68.10
2018-09-12T03:30:17.194Z,68.33
2018-09-12T03:31:20.629Z,68.06
2018-09-12T03:32:24.037Z,68.35
2018-09-12T03:33:27.453Z,68.27
2018-09-12T03:34:31.286Z,68.02
2018-09-12T03:35:34.722Z,68.41
2018-09-12T03:36:38.155Z,68.02
2018-09-12T03:37:41.559Z,68.17
2018-09-12T03:38:44.965Z,68.23
2018-09-12T03:39:48.388Z,68.23
2018-09-12T03:40:51.784Z,68.36
2018-09-12T03:41:55.208Z,68.07
2018-09-12T03:42:58.616Z,68.40
2018-09-12T03:44:02.043Z,68.53
2018-09-12T03:45:05.608Z,68.41
2018-09-12T03:46:08.985Z,68.24
2018-09-12T03:47:12.432Z,68.21
2018-09-12T03:48:15.834Z,68.20
2018-09-12T03:49:19.236Z,68.07
2018-09-12T03:50:22.594Z,68.15
2018-09-12T03:51:25.999Z,68.18
2018-09-12T03:52:29.421Z,68.35
2018-09-12T03:53:32.844Z,68.36
2018-09-12T03:54:36.260Z,68.42
2018-09-12T03:55:39.667Z,68.37
2018-09-12T03:56:43.082Z,68.30
2018-09-12T03:57:46.561Z,68.41
2018-09-12T03:58:49.942Z,68.44
2018-09-12T03:59:53.310Z,68.18
2018-09-12T04:00:56.689Z,68.44
2018-09-12T04:02:00.069Z,68.58
2018-09-12T04:03:03.585Z,68.60
2018-09-12T04:04:07.029Z,68.58
2018-09-12T04:05:10.424Z,68.59
2018-09-12T04:06:13.782Z,68.35
2018-09-12T04:07:17.166Z,68.37
2018-09-12T04:08:20.571Z,68.61
2018-09-12T04:09:23.947Z,68.73
2018-09-12T04:10:27.360Z,68.33
2018-09-12T04:11:30.777Z,68.58
2018-09-12T04:12:34.259Z,68.58
2018-09-12T04:13:37.658Z,68.91
2018-09-12T04:14:41.045Z,68.53
2018-09-12T04:15:44.432Z,68.83
2018-09-12T04:16:47.842Z,68.47
2018-09-12T04:17:51.194Z,68.65
2018-09-12T04:18:54.590Z,68.49
2018-09-12T04:19:57.999Z,68.64
2018-09-12T04:21:01.732Z,68.47
2018-09-12T04:22:05.156Z,68.58
2018-09-12T04:23:08.590Z,68.53
2018-09-12T04:24:12.049Z,68.46
2018-09-12T04:25:15.429Z,68.71
2018-09-12T04:26:18.835Z,68.71
2018-09-12T04:27:22.256Z,68.65
2018-09-12T04:28:25.655Z,68.70
2018-09-12T04:29:29.100Z,68.56
2018-09-12T04:30:32.577Z,68.78
2018-09-12T04:31:35.964Z,68.73
2018-09-12T04:32:39.387Z,68.54
2018-09-12T04:33:42.801Z,68.55
2018-09-12T04:34:46.219Z,68.72
2018-09-12T04:35:49.601Z,68.57
2018-09-12T04:36:53.118Z,68.59
2018-09-12T04:37:56.492Z,68.54
2018-09-12T04:38:59.916Z,68.48
2018-09-12T04:40:03.516Z,68.67
2018-09-12T04:41:07.120Z,68.97
2018-09-12T04:42:10.545Z,68.53
2018-09-12T04:43:14.007Z,68.58
2018-09-12T04:44:17.376Z,68.65
2018-09-12T04:45:20.978Z,68.53
2018-09-12T04:46:24.368Z,68.33
2018-09-12T04:47:27.764Z,68.43
2018-09-12T04:48:31.387Z,68.75
2018-09-12T04:49:34.827Z,68.47
2018-09-12T04:50:38.259Z,68.81
2018-09-12T04:51:41.651Z,68.55
2018-09-12T04:52:45.093Z,68.87
2018-09-12T04:53:48.538Z,68.84
2018-09-12T04:54:51.923Z,68.53
2018-09-12T04:55:55.351Z,68.66
2018-09-12T04:56:58.747Z,68.94
2018-09-12T04:58:02.187Z,68.70
2018-09-12T04:59:05.907Z,68.70
2018-09-12T05:00:09.341Z,68.69
2018-09-12T05:01:12.770Z,68.83
2018-09-12T05:02:16.158Z,68.63
2018-09-12T05:03:19.546Z,68.48
2018-09-12T05:04:23.016Z,68.68
2018-09-12T05:05:26.418Z,68.21
2018-09-12T05:06:29.822Z,68.53
2018-09-12T05:07:33.259Z,68.76
2018-09-12T05:08:36.679Z,68.46
2018-09-12T05:09:40.104Z,68.64
2018-09-12T05:10:43.555Z,68.42
2018-09-12T05:11:46.952Z,68.61
2018-09-12T05:12:50.389Z,68.46
2018-09-12T05:13:53.782Z,68.62
2018-09-12T05:14:57.236Z,68.43
2018-09-12T05:16:00.704Z,68.61
2018-09-12T05:17:04.110Z,68.55
2018-09-12T05:18:07.498Z,68.66
2018-09-12T05:19:10.953Z,68.52
2018-09-12T05:20:14.369Z,68.67
2018-09-12T05:21:17.785Z,68.82
2018-09-12T05:22:21.242Z,68.69
2018-09-12T05:23:24.664Z,68.60
2018-09-12T05:24:28.111Z,68.60
2018-09-12T05:25:31.469Z,68.76
2018-09-12T05:26:34.873Z,69.11
2018-09-12T05:27:38.334Z,68.99
2018-09-12T05:28:41.734Z,68.91
2018-09-12T05:29:45.145Z,68.61
2018-09-12T05:30:48.562Z,69.01
2018-09-12T05:31:51.956Z,68.85
2018-09-12T05:32:55.389Z,68.75
2018-09-12T05:33:58.786Z,69.02
2018-09-12T05:35:02.402Z,68.59
2018-09-12T05:36:06.137Z,69.03
2018-09-12T05:37:09.534Z,68.95
2018-09-12T05:38:12.908Z,68.82
2018-09-12T05:39:16.313Z,68.61
2018-09-12T05:40:19.734Z,68.83
2018-09-12T05:41:23.119Z,68.95
2018-09-12T05:42:26.571Z,68.80
2018-09-12T05:43:29.974Z,68.83
2018-09-12T05:44:33.450Z,68.85
2018-09-12T05:45:36.900Z,68.68
2018-09-12T05:46:40.268Z,68.76
2018-09-12T05:47:43.754Z,68.77
2018-09-12T05:48:47.222Z,68.59
2018-09-12T05:49:50.610Z,68.52
2018-09-12T05:50:54.001Z,68.80
2018-09-12T05:51:57.407Z,68.40
2018-09-12T05:53:00.801Z,68.38
2018-09-12T05:54:04.244Z,68.07
2018-09-12T05:55:07.717Z,68.06
2018-09-12T05:56:11.100Z,67.88
2018-09-12T05:57:14.531Z,67.63
2018-09-12T05:58:17.910Z,67.78
2018-09-12T05:59:21.323Z,67.59
2018-09-12T06:00:24.732Z,67.22
2018-09-12T06:01:28.122Z,67.05
2018-09-12T06:02:31.524Z,66.78
2018-09-12T06:03:35.048Z,65.74
2018-09-12T06:04:38.526Z,64.26
2018-09-12T06:05:42.037Z,63.56
2018-09-12T06:06:45.512Z,61.68
2018-09-12T06:07:48.875Z,61.78
2018-09-12T06:08:52.250Z,61.65
2018-09-12T06:09:55.675Z,61.44
2018-09-12T06:10:59.102Z,61.37
2018-09-12T06:12:02.508Z,60.00
2018-09-12T06:13:05.936Z,60.53
2018-09-12T06:14:09.458Z,60.34
2018-09-12T06:15:13.040Z,60.28
2018-09-12T06:16:16.514Z,60.13
2018-09-12T06:17:19.909Z,60.36
2018-09-12T06:18:23.301Z,60.95
2018-09-12T06:19:26.705Z,60.50
2018-09-12T06:20:30.070Z,60.35
2018-09-12T06:21:33.491Z,59.59
2018-09-12T06:22:37.014Z,59.24
2018-09-12T06:23:40.876Z,59.14
2018-09-12T06:24:44.273Z,59.16
2018-09-12T06:25:47.655Z,58.66
2018-09-12T06:26:51.029Z,58.29
2018-09-12T06:27:54.401Z,58.56
2018-09-12T06:28:57.799Z,58.49
2018-09-12T06:30:01.273Z,58.61
2018-09-12T06:31:04.744Z,58.33
2018-09-12T06:32:08.609Z,58.72
2018-09-12T06:33:12.730Z,58.73
2018-09-12T06:34:16.877Z,58.11
2018-09-12T06:35:20.933Z,57.95
2018-09-12T06:36:24.569Z,57.91
2018-09-12T06:37:28.642Z,57.85
2018-09-12T06:38:32.614Z,57.72
2018-09-12T06:39:36.314Z,57.73
2018-09-12T06:40:40.337Z,57.69
2018-09-12T06:41:43.944Z,58.02
2018-09-12T06:42:47.396Z,57.67
2018-09-12T06:43:50.875Z,57.15
2018-09-12T06:44:54.276Z,57.42
2018-09-12T06:45:57.662Z,57.74
2018-09-12T06:47:01.097Z,57.19
2018-09-12T06:48:04.542Z,57.55
2018-09-12T06:49:08.503Z,57.17
2018-09-12T06:50:11.892Z,57.33
2018-09-12T06:51:15.327Z,57.08
2018-09-12T06:52:21.320Z,56.92
2018-09-12T06:53:24.812Z,57.47
2018-09-12T06:54:28.478Z,57.66
2018-09-12T06:55:32.203Z,57.67
2018-09-12T06:56:35.877Z,57.49
2018-09-12T06:57:39.598Z,57.65
2018-09-12T06:58:44.054Z,56.98
2018-09-12T06:59:47.462Z,57.27
2018-09-12T07:00:51.045Z,56.89
2018-09-12T07:01:54.448Z,57.16
2018-09-12T07:02:57.832Z,56.85
2018-09-12T07:04:01.233Z,56.49
2018-09-12T07:05:04.888Z,57.05
2018-09-12T07:06:08.537Z,57.03
2018-09-12T07:07:11.911Z,56.85
2018-09-12T07:08:15.300Z,56.82
2018-09-12T07:09:18.684Z,57.02
2018-09-12T07:10:22.098Z,57.11
2018-09-12T07:11:25.522Z,56.94
2018-09-12T07:12:28.932Z,56.94
2018-09-12T07:13:32.410Z,56.25
2018-09-12T07:14:36.204Z,55.98
2018-09-12T07:15:39.588Z,56.41
2018-09-12T07:16:42.975Z,56.40
2018-09-12T07:17:46.368Z,56.68
2018-09-12T07:18:49.801Z,56.86
2018-09-12T07:19:53.200Z,56.56
2018-09-12T07:20:56.592Z,56.61
2018-09-12T07:21:59.985Z,56.05
2018-09-12T07:23:03.455Z,56.08
2018-09-12T07:24:06.944Z,56.47
2018-09-12T07:25:10.394Z,56.18
2018-09-12T07:26:13.801Z,56.23
2018-09-12T07:27:17.223Z,56.55
2018-09-12T07:28:20.606Z,56.50
2018-09-12T07:29:24.063Z,56.77
2018-09-12T07:30:27.519Z,56.86
2018-09-12T07:31:30.859Z,57.02
2018-09-12T07:32:34.246Z,57.62
2018-09-12T07:33:37.660Z,57.71
2018-09-12T07:34:41.079Z,57.59
2018-09-12T07:35:44.530Z,57.72
2018-09-12T07:36:47.899Z,58.18
2018-09-12T07:37:51.902Z,57.85
2018-09-12T07:38:55.562Z,58.02
2018-09-12T07:39:59.038Z,58.17
2018-09-12T07:41:02.556Z,58.02
2018-09-12T07:42:06.031Z,58.05
2018-09-12T07:43:09.600Z,58.55
2018-09-12T07:44:13.012Z,58.41
2018-09-12T07:45:16.447Z,58.84
2018-09-12T07:46:19.844Z,58.84
2018-09-12T07:47:23.265Z,58.53
2018-09-12T07:48:26.693Z,58.73
2018-09-12T07:49:30.232Z,58.89
2018-09-12T07:50:33.722Z,59.00
2018-09-12T07:51:37.166Z,59.08
2018-09-12T07:52:40.556Z,58.97
2018-09-12T07:53:43.964Z,58.72
2018-09-12T07:54:47.330Z,59.07
2018-09-12T07:55:50.764Z,58.81
2018-09-12T07:56:57.985Z,59.01
2018-09-12T07:58:02.545Z,58.94
2018-09-12T07:59:10.133Z,59.25
2018-09-12T08:00:17.069Z,58.96
2018-09-12T08:01:23.990Z,59.53
2018-09-12T08:02:30.664Z,59.04
2018-09-12T08:03:37.403Z,59.14
2018-09-12T08:04:44.315Z,59.40
2018-09-12T08:05:51.526Z,59.38
2018-09-12T08:06:58.343Z,59.51
2018-09-12T08:08:05.348Z,59.25
2018-09-12T08:09:13.524Z,59.53
2018-09-12T08:10:16.959Z,59.61
2018-09-12T08:11:20.436Z,59.42
2018-09-12T08:12:23.851Z,59.55
2018-09-12T08:13:27.272Z,59.43
2018-09-12T08:14:30.660Z,59.48
2018-09-12T08:15:34.118Z,59.64
2018-09-12T08:16:37.532Z,59.31
2018-09-12T08:17:40.908Z,59.53
2018-09-12T08:18:44.319Z,59.53
2018-09-12T08:19:47.701Z,59.85
2018-09-12T08:20:51.096Z,59.86
2018-09-12T08:21:54.565Z,59.85
2018-09-12T08:22:57.943Z,59.60
2018-09-12T08:24:01.362Z,59.84
2018-09-12T08:25:04.905Z,59.68
2018-09-12T08:26:08.746Z,59.54
2018-09-12T08:27:12.148Z,59.98
2018-09-12T08:28:15.506Z,59.88
2018-09-12T08:29:18.981Z,59.92
2018-09-12T08:30:22.366Z,59.67
2018-09-12T08:31:26.044Z,59.72
2018-09-12T08:32:29.481Z,59.87
2018-09-12T08:33:33.065Z,59.94
2018-09-12T08:34:36.499Z,60.09
2018-09-12T08:35:39.929Z,59.93
2018-09-12T08:36:43.348Z,60.00
2018-09-12T08:37:46.806Z,59.94
2018-09-12T08:38:50.178Z,60.05
2018-09-12T08:39:53.624Z,59.84
2018-09-12T08:40:57.048Z,60.17
2018-09-12T08:42:00.539Z,59.80
2018-09-12T08:43:03.938Z,60.08
2018-09-12T08:44:08.068Z,60.29
2018-09-12T08:45:11.484Z,60.03
2018-09-12T08:46:14.868Z,60.12
2018-09-12T08:47:18.335Z,60.26
2018-09-12T08:48:21.733Z,60.15
2018-09-12T08:49:25.190Z,60.00
2018-09-12T08:50:28.598Z,60.43
2018-09-12T08:51:32.198Z,60.29
2018-09-12T08:52:35.625Z,60.32
2018-09-12T08:53:39.042Z,60.02
2018-09-12T08:54:42.439Z,60.06
2018-09-12T08:55:46.286Z,60.20
2018-09-12T08:56:49.729Z,60.33
2018-09-12T08:57:53.214Z,60.25
2018-09-12T08:58:56.952Z,60.31
2018-09-12T09:00:00.337Z,60.30
2018-09-12T09:01:03.807Z,60.57
2018-09-12T09:02:07.276Z,60.35
2018-09-12T09:03:10.685Z,60.23
2018-09-12T09:04:14.135Z,60.26
2018-09-12T09:05:17.523Z,60.49
2018-09-12T09:06:20.952Z,60.65
2018-09-12T09:07:24.368Z,60.45
2018-09-12T09:08:27.816Z,60.39
2018-09-12T09:09:31.372Z,60.45
2018-09-12T09:10:34.797Z,60.27
2018-09-12T09:11:38.378Z,60.61
2018-09-12T09:12:41.800Z,60.57
2018-09-12T09:13:45.236Z,60.41
2018-09-12T09:14:48.649Z,60.31
2018-09-12T09:15:52.048Z,60.24
2018-09-12T09:16:55.440Z,60.61
2018-09-12T09:17:58.825Z,60.52
2018-09-12T09:19:02.505Z,60.46
2018-09-12T09:20:05.961Z,60.39
2018-09-12T09:21:09.345Z,60.48
2018-09-12T09:22:12.733Z,60.53
2018-09-12T09:23:16.121Z,60.65
2018-09-12T09:24:19.508Z,60.55
2018-09-12T09:25:22.908Z,60.46
2018-09-12T09:26:26.329Z,60.41
2018-09-12T09:27:29.694Z,60.67
2018-09-12T09:28:33.109Z,60.45
2018-09-12T09:29:36.559Z,60.55
2018-09-12T09:30:39.950Z,60.69
2018-09-12T09:31:43.349Z,60.39
2018-09-12T09:32:46.819Z,60.78
2018-09-12T09:33:50.230Z,60.37
2018-09-12T09:34:53.675Z,60.63
2018-09-12T09:35:57.079Z,60.52
2018-09-12T09:37:00.490Z,60.61
2018-09-12T09:38:03.963Z,60.52
2018-09-12T09:39:09.398Z,60.79
2018-09-12T09:40:12.798Z,60.64
2018-09-12T09:41:16.190Z,60.78
2018-09-12T09:42:19.631Z,60.90
2018-09-12T09:43:23.028Z,60.68
2018-09-12T09:44:26.422Z,60.54
2018-09-12T09:45:29.875Z,60.65
2018-09-12T09:46:33.546Z,60.53
2018-09-12T09:47:36.994Z,60.66
2018-09-12T09:48:40.571Z,60.65
2018-09-12T09:49:44.064Z,60.90
2018-09-12T09:50:47.482Z,61.04
2018-09-12T09:51:50.858Z,60.64
2018-09-12T09:52:54.280Z,60.68
2018-09-12T09:53:57.705Z,60.74
2018-09-12T09:55:01.165Z,60.53
2018-09-12T09:56:04.619Z,60.63
2018-09-12T09:57:08.733Z,60.60
2018-09-12T09:58:12.122Z,60.53
2018-09-12T09:59:15.557Z,61.08
2018-09-12T10:00:24.146Z,60.91
2018-09-12T10:01:32.862Z,61.06
2018-09-12T10:02:41.388Z,61.06
2018-09-12T10:03:50.165Z,61.25
2018-09-12T10:04:59.253Z,60.83
2018-09-12T10:06:08.183Z,60.93
2018-09-12T10:07:16.759Z,60.76
2018-09-12T10:08:25.573Z,60.78
2018-09-12T10:09:33.038Z,60.99
2018-09-12T10:11:40.175Z,60.97
2018-09-12T10:12:44.365Z,60.99
2018-09-12T10:13:48.430Z,61.17
2018-09-12T10:14:52.726Z,60.97
2018-09-12T10:15:57.011Z,60.97
2018-09-12T10:17:01.207Z,61.00
2018-09-12T10:18:05.608Z,60.75
2018-09-12T10:19:09.828Z,60.98
2018-09-12T10:20:14.094Z,60.82
2018-09-12T10:21:18.758Z,61.02
2018-09-12T10:22:23.234Z,60.80
2018-09-12T10:23:27.397Z,61.10
2018-09-12T10:24:31.632Z,61.21
2018-09-12T10:25:35.811Z,60.99
2018-09-12T10:26:39.962Z,60.87
2018-09-12T10:27:44.205Z,60.97
2018-09-12T10:29:51.442Z,61.04
2018-09-12T10:30:55.855Z,60.78
2018-09-12T10:32:00.006Z,61.02
2018-09-12T10:33:03.970Z,61.21
2018-09-12T10:34:08.361Z,60.84
2018-09-12T10:35:12.526Z,60.98
2018-09-12T10:36:16.736Z,61.06
2018-09-12T10:37:21.081Z,60.89
2018-09-12T10:38:25.189Z,60.95
2018-09-12T10:39:29.365Z,60.97
2018-09-12T10:40:33.656Z,60.93
2018-09-12T10:41:37.905Z,61.10
2018-09-12T10:42:42.090Z,60.96
2018-09-12T10:43:46.531Z,60.95
2018-09-12T10:44:50.745Z,60.88
2018-09-12T10:45:54.931Z,61.10
2018-09-12T10:46:59.180Z,61.09
2018-09-12T10:48:03.259Z,60.95
2018-09-12T10:49:07.818Z,61.10
2018-09-12T10:50:12.246Z,61.00
2018-09-12T10:51:16.392Z,60.73
2018-09-12T10:52:20.636Z,60.74
2018-09-12T10:53:24.809Z,61.10
2018-09-12T10:54:29.099Z,60.95
2018-09-12T10:55:33.355Z,61.00
2018-09-12T10:56:37.513Z,60.96
2018-09-12T10:57:41.711Z,61.25
2018-09-12T10:58:45.885Z,60.87
2018-09-12T10:59:50.087Z,60.98
2018-09-12T11:00:54.601Z,61.14
2018-09-12T11:01:58.177Z,61.07
2018-09-12T11:03:01.567Z,61.00
2018-09-12T11:04:04.950Z,60.80
2018-09-12T11:05:09.334Z,60.99
2018-09-12T11:06:13.136Z,60.96
2018-09-12T11:07:16.498Z,60.97
2018-09-12T11:08:20.213Z,60.92
2018-09-12T11:09:23.604Z,60.97
2018-09-12T11:10:27.255Z,61.04
2018-09-12T11:11:31.519Z,60.84
2018-09-12T11:12:35.757Z,61.04
2018-09-12T11:13:40.028Z,60.85
2018-09-12T11:14:44.218Z,60.97
2018-09-12T11:15:48.460Z,60.95
2018-09-12T11:16:52.635Z,61.02
2018-09-12T11:17:56.857Z,61.31
2018-09-12T11:19:01.228Z,60.81
2018-09-12T11:20:05.508Z,61.06
2018-09-12T11:21:09.721Z,61.21
2018-09-12T11:22:13.800Z,60.97
2018-09-12T11:23:18.049Z,60.76
2018-09-12T11:24:22.434Z,60.81
2018-09-12T11:25:26.604Z,61.15
2018-09-12T11:26:30.796Z,61.08
2018-09-12T11:27:35.193Z,60.93
2018-09-12T11:28:39.761Z,61.16
2018-09-12T11:29:43.249Z,61.37
2018-09-12T11:30:46.649Z,61.46
2018-09-12T11:31:50.047Z,61.34
2018-09-12T11:32:53.434Z,61.70
2018-09-12T11:33:56.829Z,61.37
2018-09-12T11:35:00.251Z,61.68
2018-09-12T11:36:03.650Z,61.74
2018-09-12T11:37:07.505Z,61.75
2018-09-12T11:38:10.946Z,61.98
2018-09-12T11:39:14.382Z,62.10
2018-09-12T11:40:17.807Z,62.25
2018-09-12T11:41:21.181Z,62.39
2018-09-12T11:42:24.598Z,62.43
2018-09-12T11:43:27.972Z,62.50
2018-09-12T11:44:31.468Z,62.34
2018-09-12T11:45:35.016Z,62.33
2018-09-12T11:46:38.386Z,62.67
2018-09-12T11:47:41.792Z,62.69
2018-09-12T11:48:45.355Z,62.52
2018-09-12T11:49:48.719Z,62.43
2018-09-12T11:50:52.081Z,62.48
2018-09-12T11:51:55.468Z,62.50
2018-09-12T11:52:58.892Z,62.86
2018-09-12T11:54:02.297Z,62.56
2018-09-12T11:55:06.074Z,62.79
2018-09-12T11:56:09.477Z,62.86
2018-09-12T11:57:12.856Z,62.95
2018-09-12T11:58:16.272Z,62.78
2018-09-12T11:59:19.920Z,62.73
2018-09-12T12:00:23.341Z,62.65
2018-09-12T12:01:26.759Z,62.78
2018-09-12T12:02:30.188Z,62.84
2018-09-12T12:03:33.679Z,62.92
2018-09-12T12:04:37.116Z,63.13
2018-09-12T12:05:40.496Z,63.02
2018-09-12T12:06:43.900Z,62.96
2018-09-12T12:07:47.325Z,62.72
2018-09-12T12:08:51.449Z,63.15
2018-09-12T12:09:54.991Z,62.87
2018-09-12T12:10:58.408Z,63.21
2018-09-12T12:12:02.084Z,63.27
2018-09-12T12:13:05.828Z,62.94
2018-09-12T12:14:09.422Z,63.09
2018-09-12T12:15:12.842Z,62.91
2018-09-12T12:16:16.211Z,62.64
2018-09-12T12:17:19.730Z,62.60
2018-09-12T12:18:23.418Z,62.55
2018-09-12T12:19:26.977Z,62.69
2018-09-12T12:20:30.421Z,62.41
2018-09-12T12:21:33.950Z,62.42
2018-09-12T12:22:37.376Z,62.64
2018-09-12T12:23:40.798Z,62.78
2018-09-12T12:24:44.271Z,62.88
2018-09-12T12:25:48.679Z,62.80
2018-09-12T12:26:52.262Z,63.03
2018-09-12T12:27:55.895Z,62.87
2018-09-12T12:28:59.368Z,63.24
2018-09-12T12:30:02.878Z,63.13
2018-09-12T12:31:06.295Z,62.92
2018-09-12T12:32:12.680Z,62.77
2018-09-12T12:33:19.618Z,62.87
2018-09-12T12:34:26.302Z,62.71
2018-09-12T12:35:30.208Z,62.84
2018-09-12T12:36:33.606Z,63.03
2018-09-12T12:37:37.355Z,62.86
2018-09-12T12:38:40.967Z,63.06
2018-09-12T12:39:44.580Z,63.21
2018-09-12T12:40:48.052Z,63.01
2018-09-12T12:41:51.487Z,63.07
2018-09-12T12:42:54.900Z,62.88
2018-09-12T12:43:58.330Z,63.01
2018-09-12T12:45:01.997Z,62.99
2018-09-12T12:46:05.681Z,62.89
2018-09-12T12:47:09.223Z,63.29
2018-09-12T12:48:12.640Z,63.16
2018-09-12T12:49:16.059Z,62.89
2018-09-12T12:50:19.479Z,63.36
2018-09-12T12:51:22.920Z,63.00
2018-09-12T12:52:26.533Z,63.06
2018-09-12T12:53:29.947Z,63.12
2018-09-12T12:54:33.864Z,62.77
2018-09-12T12:55:37.281Z,62.83
2018-09-12T12:56:40.698Z,62.82
2018-09-12T12:57:44.121Z,62.63
2018-09-12T12:58:47.694Z,63.18
2018-09-12T12:59:51.168Z,62.77
2018-09-12T13:00:54.595Z,62.74
2018-09-12T13:01:58.014Z,62.59
2018-09-12T13:03:01.490Z,62.78
2018-09-12T13:04:04.983Z,62.47
2018-09-12T13:05:08.481Z,62.62
2018-09-12T13:06:11.880Z,62.38
2018-09-12T13:07:15.383Z,62.65
2018-09-12T13:08:18.783Z,62.42
2018-09-12T13:09:22.209Z,62.61
2018-09-12T13:10:25.637Z,62.24
2018-09-12T13:11:29.261Z,62.50
2018-09-12T13:12:32.782Z,62.72
2018-09-12T13:13:36.305Z,62.46
2018-09-12T13:14:39.884Z,62.33
2018-09-12T13:15:43.214Z,62.40
2018-09-12T13:16:46.673Z,62.73
2018-09-12T13:17:50.113Z,62.74
2018-09-12T13:18:53.509Z,62.58
2018-09-12T13:19:56.901Z,62.44
2018-09-12T13:21:00.779Z,62.61
2018-09-12T13:22:04.469Z,62.75
2018-09-12T13:23:07.892Z,62.60
2018-09-12T13:24:11.289Z,62.81
2018-09-12T13:25:14.734Z,62.62
2018-09-12T13:26:18.105Z,62.53
2018-09-12T13:27:21.621Z,62.63
2018-09-12T13:28:25.011Z,62.49
2018-09-12T13:29:28.463Z,62.59
2018-09-12T13:30:31.847Z,62.55
2018-09-12T13:31:35.267Z,62.69
2018-09-12T13:32:38.682Z,62.37
2018-09-12T13:33:42.081Z,62.34
2018-09-12T13:34:45.506Z,62.25
2018-09-12T13:35:48.910Z,62.28
2018-09-12T13:36:52.329Z,62.67
2018-09-12T13:37:55.742Z,62.21
2018-09-12T13:38:59.231Z,62.41
2018-09-12T13:40:02.661Z,62.47
2018-09-12T13:41:06.161Z,62.45
2018-09-12T13:42:09.545Z,62.25